createdAt,value
2023-05-19T00:00:58.981Z,3.10
2023-05-19T00:03:25.691Z,2.78
2023-05-19T00:05:53.789Z,3.08
2023-05-19T00:08:22.711Z,3.05
2023-05-19T00:10:49.455Z,3.03
2023-05-19T00:13:16.262Z,2.95
2023-05-19T00:15:43.161Z,2.80
2023-05-19T00:18:09.928Z,2.90
2023-05-19T00:20:38.040Z,3.00
2023-05-19T00:23:04.524Z,3.05
2023-05-19T00:25:31.139Z,3.10
2023-05-19T00:27:59.229Z,2.97
2023-05-19T00:30:26.144Z,3.00
2023-05-19T00:32:52.809Z,3.00
2023-05-19T00:35:20.338Z,3.10
2023-05-19T00:37:47.053Z,2.90
2023-05-19T00:40:13.674Z,2.97
2023-05-19T00:42:41.208Z,2.50
2023-05-19T00:45:08.469Z,3.28
2023-05-19T00:47:35.236Z,2.70
2023-05-19T00:50:01.848Z,3.47
2023-05-19T00:52:28.667Z,3.03
2023-05-19T00:54:55.939Z,3.50
2023-05-19T00:57:22.805Z,3.75
2023-05-19T00:59:49.392Z,2.97
2023-05-19T01:02:16.058Z,2.97
2023-05-19T01:04:44.762Z,3.65
2023-05-19T01:07:12.449Z,2.67
2023-05-19T01:09:40.612Z,2.80
2023-05-19T01:12:08.687Z,3.05
2023-05-19T01:14:36.364Z,3.00
2023-05-19T01:17:37.948Z,3.15
2023-05-19T01:20:27.235Z,2.58
2023-05-19T01:23:14.961Z,3.00
2023-05-19T01:25:56.967Z,2.67
2023-05-19T01:28:49.116Z,2.88
2023-05-19T01:31:18.655Z,2.67
2023-05-19T01:33:47.164Z,3.17
2023-05-19T01:36:15.404Z,3.15
2023-05-19T01:38:43.909Z,3.05
2023-05-19T01:41:11.735Z,2.58
2023-05-19T01:43:38.917Z,2.60
2023-05-19T01:46:06.191Z,2.85
2023-05-19T01:48:33.522Z,2.80
2023-05-19T01:51:00.200Z,2.95
2023-05-19T01:53:26.740Z,2.95
2023-05-19T01:55:56.347Z,2.70
2023-05-19T01:58:47.585Z,3.05
2023-05-19T02:01:45.768Z,3.10
2023-05-19T02:04:15.060Z,2.60
2023-05-19T02:07:03.565Z,3.13
2023-05-19T02:09:41.120Z,3.10
2023-05-19T02:12:16.701Z,2.67
2023-05-19T02:15:05.584Z,2.75
2023-05-19T02:17:36.406Z,3.20
2023-05-19T02:20:05.000Z,2.92
2023-05-19T02:22:31.780Z,2.75
2023-05-19T02:24:58.468Z,3.25
2023-05-19T02:27:25.015Z,3.13
2023-05-19T02:29:52.170Z,2.80
2023-05-19T02:32:19.221Z,3.35
2023-05-19T02:34:46.628Z,2.78
2023-05-19T02:37:14.608Z,3.08
2023-05-19T02:39:44.296Z,2.92
2023-05-19T02:42:12.001Z,2.42
2023-05-19T02:44:38.533Z,3.30
2023-05-19T02:47:05.028Z,2.72
2023-05-19T02:49:35.909Z,3.00
2023-05-19T02:52:06.086Z,2.95
2023-05-19T02:54:34.155Z,3.05
2023-05-19T02:57:02.387Z,3.10
2023-05-19T02:59:29.050Z,3.10
2023-05-19T03:02:01.673Z,2.78
2023-05-19T03:04:29.374Z,2.88
2023-05-19T03:06:57.307Z,2.80
2023-05-19T03:09:23.961Z,2.90
2023-05-19T03:11:50.712Z,2.55
2023-05-19T03:14:18.513Z,3.67
2023-05-19T03:16:45.154Z,3.00
2023-05-19T03:19:12.072Z,2.83
2023-05-19T03:21:38.527Z,2.60
2023-05-19T03:24:05.275Z,2.90
2023-05-19T03:26:32.990Z,2.70
2023-05-19T03:28:59.548Z,3.08
2023-05-19T03:31:26.727Z,2.72
2023-05-19T03:33:53.635Z,2.95
2023-05-19T03:36:22.120Z,2.70
2023-05-19T03:38:48.831Z,2.63
2023-05-19T03:41:15.817Z,2.60
2023-05-19T03:43:42.421Z,2.95
2023-05-19T03:46:09.914Z,3.22
2023-05-19T03:49:05.025Z,2.72
2023-05-19T03:51:37.110Z,2.70
2023-05-19T03:54:16.987Z,2.85
2023-05-19T03:56:43.483Z,2.53
2023-05-19T03:59:13.038Z,2.72
2023-05-19T04:01:39.604Z,2.53
2023-05-19T04:04:06.099Z,2.40
2023-05-19T04:06:33.830Z,2.80
2023-05-19T04:09:02.651Z,2.50
2023-05-19T04:11:29.224Z,2.83
2023-05-19T04:13:55.778Z,2.25
2023-05-19T04:16:22.412Z,3.05
2023-05-19T04:18:49.017Z,2.80
2023-05-19T04:21:15.521Z,2.70
2023-05-19T04:23:42.047Z,2.72
2023-05-19T04:26:08.504Z,3.08
2023-05-19T04:28:38.933Z,2.85
2023-05-19T04:31:11.105Z,2.42
2023-05-19T04:33:37.983Z,2.50
2023-05-19T04:36:10.562Z,2.42
2023-05-19T04:38:40.062Z,2.75
2023-05-19T04:41:12.144Z,2.30
2023-05-19T04:43:44.575Z,2.88
2023-05-19T04:46:13.945Z,2.67
2023-05-19T04:48:42.625Z,2.65
2023-05-19T04:51:09.105Z,2.70
2023-05-19T04:53:36.625Z,2.28
2023-05-19T04:56:05.877Z,2.85
2023-05-19T04:58:33.260Z,2.45
2023-05-19T05:00:59.959Z,3.00
2023-05-19T05:03:27.472Z,2.58
2023-05-19T05:05:54.120Z,2.60
2023-05-19T05:08:23.301Z,2.25
2023-05-19T05:10:51.472Z,2.63
2023-05-19T05:13:21.281Z,2.20
2023-05-19T05:15:48.268Z,2.42
2023-05-19T05:18:15.823Z,2.40
2023-05-19T05:20:43.160Z,2.55
2023-05-19T05:23:14.486Z,2.75
2023-05-19T05:25:44.184Z,2.88
2023-05-19T05:28:11.356Z,2.33
2023-05-19T05:30:37.964Z,2.55
2023-05-19T05:33:06.654Z,2.25
2023-05-19T05:35:36.711Z,2.40
2023-05-19T05:38:04.399Z,2.10
2023-05-19T05:40:31.155Z,2.38
2023-05-19T05:42:59.080Z,2.35
2023-05-19T05:45:28.603Z,2.33
2023-05-19T05:47:55.636Z,2.88
2023-05-19T05:50:23.241Z,1.80
2023-05-19T05:52:50.970Z,2.60
2023-05-19T05:55:18.567Z,2.83
2023-05-19T05:57:45.338Z,2.30
2023-05-19T06:00:15.815Z,1.95
2023-05-19T06:02:49.198Z,1.90
2023-05-19T06:05:17.774Z,2.67
2023-05-19T06:07:46.679Z,2.33
2023-05-19T06:10:18.643Z,2.10
2023-05-19T06:12:45.427Z,3.17
2023-05-19T06:15:12.094Z,2.42
2023-05-19T06:18:11.036Z,2.58
2023-05-19T06:20:39.267Z,2.30
2023-05-19T06:23:05.817Z,2.13
2023-05-19T06:25:32.675Z,2.50
2023-05-19T06:27:59.819Z,2.47
2023-05-19T06:30:27.351Z,2.50
2023-05-19T06:33:08.731Z,2.47
2023-05-19T06:35:35.619Z,2.80
2023-05-19T06:38:02.250Z,2.58
2023-05-19T06:40:29.439Z,2.30
2023-05-19T06:42:56.178Z,2.42
2023-05-19T06:45:32.926Z,2.50
2023-05-19T06:48:02.064Z,2.65
2023-05-19T06:50:28.898Z,2.67
2023-05-19T06:52:57.192Z,2.80
2023-05-19T06:55:24.369Z,2.63
2023-05-19T06:57:50.845Z,2.53
2023-05-19T07:00:21.185Z,2.55
2023-05-19T07:02:51.230Z,2.78
2023-05-19T07:05:18.287Z,2.50
2023-05-19T07:07:49.517Z,2.67
2023-05-19T07:10:21.849Z,2.45
2023-05-19T07:12:48.551Z,2.53
2023-05-19T07:15:16.980Z,4.05
2023-05-19T07:17:43.891Z,2.90
2023-05-19T07:20:10.820Z,2.63
2023-05-19T07:22:39.612Z,3.15
2023-05-19T07:25:09.908Z,2.45
2023-05-19T07:27:37.109Z,2.58
2023-05-19T07:30:04.288Z,2.55
2023-05-19T07:32:30.819Z,2.33
2023-05-19T07:34:57.428Z,2.67
2023-05-19T07:37:23.987Z,2.80
2023-05-19T07:39:50.539Z,2.92
2023-05-19T07:42:17.018Z,3.08
2023-05-19T07:44:43.533Z,2.92
2023-05-19T07:47:10.127Z,3.13
2023-05-19T07:49:36.689Z,2.90
2023-05-19T07:52:03.448Z,3.20
2023-05-19T07:54:29.982Z,2.80
2023-05-19T07:56:56.616Z,3.03
2023-05-19T07:59:23.135Z,3.22
2023-05-19T08:01:49.780Z,2.78
2023-05-19T08:04:16.447Z,2.90
2023-05-19T08:06:44.414Z,2.72
2023-05-19T08:09:11.099Z,2.40
2023-05-19T08:11:37.823Z,3.20
2023-05-19T08:14:04.354Z,2.80
2023-05-19T08:16:31.055Z,2.78
2023-05-19T08:18:57.681Z,3.17
2023-05-19T08:21:24.213Z,2.78
2023-05-19T08:23:51.141Z,2.92
2023-05-19T08:26:17.731Z,3.60
2023-05-19T08:28:44.294Z,2.75
2023-05-19T08:31:11.010Z,2.80
2023-05-19T08:33:37.606Z,2.80
2023-05-19T08:36:04.686Z,2.58
2023-05-19T08:38:31.118Z,2.70
2023-05-19T08:40:58.626Z,2.80
2023-05-19T08:43:25.659Z,2.70
2023-05-19T08:45:54.038Z,2.60
2023-05-19T08:48:22.186Z,3.42
2023-05-19T08:51:08.887Z,2.75
2023-05-19T08:53:39.670Z,4.20
2023-05-19T08:56:16.357Z,2.43
2023-05-19T08:58:44.613Z,2.53
2023-05-19T09:01:14.470Z,3.05
2023-05-19T09:03:42.670Z,2.45
2023-05-19T09:06:12.453Z,2.55
2023-05-19T09:08:39.758Z,3.15
2023-05-19T09:11:06.421Z,3.15
2023-05-19T09:13:32.930Z,2.72
2023-05-19T09:15:59.815Z,2.80
2023-05-19T09:18:26.832Z,2.85
2023-05-19T09:21:00.625Z,2.17
2023-05-19T09:23:29.622Z,2.72
2023-05-19T09:25:57.255Z,3.03
2023-05-19T09:28:27.974Z,2.40
2023-05-19T09:31:02.319Z,2.72
2023-05-19T09:33:29.626Z,2.70
2023-05-19T09:35:56.900Z,2.50
2023-05-19T09:38:27.526Z,2.63
2023-05-19T09:40:57.909Z,3.13
2023-05-19T09:43:24.857Z,2.80
2023-05-19T09:46:01.582Z,2.70
2023-05-19T09:48:28.315Z,2.80
2023-05-19T09:50:55.025Z,2.72
2023-05-19T09:53:22.166Z,2.50
2023-05-19T09:55:49.808Z,2.92
2023-05-19T09:58:18.568Z,2.60
2023-05-19T10:00:47.518Z,2.60
2023-05-19T10:03:16.446Z,2.22
2023-05-19T10:05:43.821Z,2.53
2023-05-19T10:08:12.342Z,2.78
2023-05-19T10:10:39.012Z,2.92
2023-05-19T10:13:06.204Z,2.10
2023-05-19T10:15:36.095Z,2.72
2023-05-19T10:18:08.284Z,2.85
2023-05-19T10:20:35.568Z,3.13
2023-05-19T10:23:03.198Z,2.60
2023-05-19T10:25:35.302Z,3.00
2023-05-19T10:28:07.742Z,2.95
2023-05-19T10:30:47.499Z,2.08
2023-05-19T10:33:17.518Z,2.28
2023-05-19T10:36:09.683Z,2.45
2023-05-19T10:38:58.773Z,2.50
2023-05-19T10:41:41.804Z,4.97
2023-05-19T10:44:26.653Z,2.25
2023-05-19T10:46:56.606Z,2.47
2023-05-19T10:49:23.913Z,2.70
2023-05-19T10:51:54.830Z,3.15
2023-05-19T10:54:46.768Z,2.80
2023-05-19T10:57:20.230Z,3.65
2023-05-19T10:59:47.178Z,2.30
2023-05-19T11:02:45.046Z,2.55
2023-05-19T11:05:14.694Z,2.33
2023-05-19T11:07:54.510Z,2.58
2023-05-19T11:10:25.133Z,2.60
2023-05-19T11:12:52.351Z,2.53
2023-05-19T11:15:23.955Z,2.80
2023-05-19T11:20:23.509Z,3.33
2023-05-19T11:23:11.095Z,2.80
2023-05-19T11:25:52.180Z,2.45
2023-05-19T11:28:20.624Z,2.75
2023-05-19T11:30:51.953Z,2.55
2023-05-19T11:33:20.264Z,2.05
2023-05-19T11:35:49.246Z,2.90
2023-05-19T11:38:18.414Z,2.78
2023-05-19T11:40:45.107Z,2.60
2023-05-19T11:43:11.596Z,2.38
2023-05-19T11:45:38.398Z,3.05
2023-05-19T11:48:05.619Z,2.40
2023-05-19T11:50:32.611Z,3.28
2023-05-19T11:53:01.251Z,2.45
2023-05-19T11:55:28.551Z,2.53
2023-05-19T11:58:02.932Z,2.78
2023-05-19T12:00:37.107Z,2.65
2023-05-19T12:03:04.094Z,3.10
2023-05-19T12:05:34.488Z,2.53
2023-05-19T12:08:02.885Z,2.33
2023-05-19T12:10:31.408Z,2.90
2023-05-19T12:12:59.236Z,3.50
2023-05-19T12:15:25.976Z,2.78
2023-05-19T12:18:03.220Z,2.70
2023-05-19T12:20:35.398Z,3.00
2023-05-19T12:23:02.846Z,2.70
2023-05-19T12:25:31.081Z,2.65
2023-05-19T12:28:04.783Z,3.35
2023-05-19T12:30:32.896Z,3.15
2023-05-19T12:33:01.627Z,2.80
2023-05-19T12:35:35.923Z,2.60
2023-05-19T12:38:04.676Z,3.40
2023-05-19T12:40:31.531Z,3.08
2023-05-19T12:42:59.096Z,3.08
2023-05-19T12:45:27.971Z,2.92
2023-05-19T12:47:54.746Z,2.83
2023-05-19T12:50:21.323Z,3.00
2023-05-19T12:52:51.187Z,3.17
2023-05-19T12:55:20.471Z,2.70
2023-05-19T12:57:52.799Z,2.92
2023-05-19T13:00:21.513Z,2.80
2023-05-19T13:03:20.778Z,3.13
2023-05-19T13:05:49.597Z,3.15
2023-05-19T13:08:21.600Z,3.25
2023-05-19T13:10:49.203Z,2.90
2023-05-19T13:13:16.166Z,2.45
2023-05-19T13:15:44.805Z,3.30
2023-05-19T13:18:12.653Z,3.00
2023-05-19T13:20:40.636Z,2.70
2023-05-19T13:23:07.567Z,2.92
2023-05-19T13:25:34.469Z,3.58
2023-05-19T13:28:04.892Z,3.47
2023-05-19T13:30:33.042Z,2.88
2023-05-19T13:32:59.854Z,3.20
2023-05-19T13:35:26.650Z,3.20
2023-05-19T13:37:53.586Z,3.08
2023-05-19T13:40:20.256Z,3.20
2023-05-19T13:42:46.964Z,2.85
2023-05-19T13:45:13.927Z,2.90
2023-05-19T13:47:40.592Z,3.00
2023-05-19T13:50:07.496Z,3.05
2023-05-19T13:52:34.082Z,3.80
2023-05-19T13:55:00.567Z,2.75
2023-05-19T13:57:27.092Z,3.35
2023-05-19T14:00:01.794Z,2.90
2023-05-19T14:02:39.279Z,2.85
2023-05-19T14:05:06.541Z,2.90
2023-05-19T14:07:34.780Z,2.70
2023-05-19T14:10:02.586Z,2.70
2023-05-19T14:12:38.075Z,2.60
2023-05-19T14:15:14.227Z,3.22
2023-05-19T14:17:40.780Z,2.60
2023-05-19T14:20:08.383Z,2.72
2023-05-19T14:22:34.859Z,2.88
2023-05-19T14:25:02.187Z,3.08
2023-05-19T14:27:28.682Z,2.63
2023-05-19T14:29:55.245Z,2.17
2023-05-19T14:32:22.361Z,3.03
2023-05-19T14:34:52.694Z,2.33
2023-05-19T14:37:20.350Z,2.63
2023-05-19T14:39:46.966Z,2.22
2023-05-19T14:42:13.524Z,2.78
2023-05-19T14:44:39.982Z,3.85
2023-05-19T14:47:07.381Z,2.33
2023-05-19T14:49:34.068Z,3.00
2023-05-19T14:52:00.678Z,3.42
2023-05-19T14:54:27.156Z,2.67
2023-05-19T14:56:53.665Z,3.03
2023-05-19T14:59:21.555Z,2.20
2023-05-19T15:01:48.285Z,2.72
2023-05-19T15:04:14.973Z,2.63
2023-05-19T15:06:41.706Z,2.60
2023-05-19T15:09:08.349Z,2.47
2023-05-19T15:11:34.914Z,2.83
2023-05-19T15:14:01.397Z,3.38
2023-05-19T15:16:27.994Z,3.05
2023-05-19T15:18:54.819Z,2.75
2023-05-19T15:21:21.429Z,2.97
2023-05-19T15:23:48.012Z,2.97
2023-05-19T15:26:14.654Z,2.75
2023-05-19T15:28:41.353Z,2.58
2023-05-19T15:31:08.028Z,2.70
2023-05-19T15:33:34.687Z,2.88
2023-05-19T15:36:01.196Z,3.05
2023-05-19T15:38:29.223Z,3.38
2023-05-19T15:40:56.547Z,2.75
2023-05-19T15:43:23.261Z,2.60
2023-05-19T15:45:52.129Z,2.60
2023-05-19T15:48:19.079Z,2.70
2023-05-19T15:50:45.907Z,2.70
2023-05-19T15:53:12.447Z,2.80
2023-05-19T15:55:39.120Z,3.13
2023-05-19T15:58:05.657Z,3.00
2023-05-19T16:00:32.498Z,2.97
2023-05-19T16:02:59.256Z,2.70
2023-05-19T16:05:25.830Z,2.72
2023-05-19T16:07:52.268Z,2.30
2023-05-19T16:10:18.899Z,2.88
2023-05-19T16:12:45.431Z,2.60
2023-05-19T16:15:11.914Z,2.90
2023-05-19T16:17:38.471Z,2.72
2023-05-19T16:20:06.102Z,2.90
2023-05-19T16:22:32.643Z,3.17
2023-05-19T16:24:59.194Z,2.63
2023-05-19T16:27:25.819Z,2.65
2023-05-19T16:29:52.321Z,2.50
2023-05-19T16:32:19.061Z,2.60
2023-05-19T16:34:45.522Z,2.90
2023-05-19T16:37:12.112Z,2.72
2023-05-19T16:39:40.143Z,2.60
2023-05-19T16:42:06.865Z,2.97
2023-05-19T16:44:33.371Z,2.80
2023-05-19T16:46:59.834Z,2.72
2023-05-19T16:49:26.320Z,2.15
2023-05-19T16:51:54.066Z,2.08
2023-05-19T16:54:21.230Z,2.75
2023-05-19T16:56:47.819Z,2.33
2023-05-19T16:59:14.393Z,2.50
2023-05-19T17:01:40.958Z,2.25
2023-05-19T17:04:07.512Z,2.50
2023-05-19T17:06:34.152Z,2.75
2023-05-19T17:09:00.674Z,2.78
2023-05-19T17:11:27.492Z,2.92
2023-05-19T17:13:53.994Z,2.33
2023-05-19T17:16:20.512Z,2.25
2023-05-19T17:18:47.960Z,2.65
2023-05-19T17:21:14.658Z,2.35
2023-05-19T17:23:41.540Z,2.35
2023-05-19T17:26:08.779Z,1.92
2023-05-19T17:28:35.619Z,2.60
2023-05-19T17:31:09.567Z,3.00
2023-05-19T17:33:36.213Z,2.60
2023-05-19T17:36:04.155Z,3.10
2023-05-19T17:38:32.234Z,2.38
2023-05-19T17:40:59.401Z,2.47
2023-05-19T17:43:26.640Z,2.88
2023-05-19T17:45:53.609Z,2.70
2023-05-19T17:48:20.310Z,2.65
2023-05-19T17:50:48.064Z,2.30
2023-05-19T17:53:17.850Z,2.35
2023-05-19T17:55:52.423Z,2.67
2023-05-19T17:58:19.964Z,2.50
2023-05-19T18:00:46.683Z,2.95
2023-05-19T18:03:13.598Z,2.40
2023-05-19T18:05:43.103Z,2.47
2023-05-19T18:08:10.078Z,2.28
2023-05-19T18:10:38.480Z,3.40
2023-05-19T18:13:06.302Z,2.17
2023-05-19T18:15:33.312Z,2.33
2023-05-19T18:18:00.989Z,2.50
2023-05-19T18:20:27.533Z,2.20
2023-05-19T18:22:54.095Z,2.20
2023-05-19T18:25:21.728Z,2.15
2023-05-19T18:27:48.251Z,2.20
2023-05-19T18:30:14.759Z,2.17
2023-05-19T18:32:41.645Z,2.40
2023-05-19T18:35:08.993Z,2.97
2023-05-19T18:37:35.723Z,2.67
2023-05-19T18:40:02.302Z,2.80
2023-05-19T18:42:28.955Z,7.78
2023-05-19T18:44:55.454Z,2.90
2023-05-19T18:47:22.989Z,3.05
2023-05-19T18:49:49.905Z,3.45
2023-05-19T18:52:16.398Z,2.50
2023-05-19T18:54:44.049Z,2.50
2023-05-19T18:57:10.828Z,2.90
2023-05-19T18:59:37.332Z,2.50
2023-05-19T19:02:03.986Z,2.53
2023-05-19T19:04:30.740Z,2.50
2023-05-19T19:06:57.319Z,3.03
2023-05-19T19:09:23.793Z,2.80
2023-05-19T19:11:50.440Z,3.15
2023-05-19T19:14:16.995Z,2.53
2023-05-19T19:16:43.596Z,2.42
2023-05-19T19:19:10.227Z,3.10
2023-05-19T19:21:36.786Z,2.72
2023-05-19T19:24:03.515Z,3.28
2023-05-19T19:26:29.965Z,3.10
2023-05-19T19:28:56.734Z,3.25
2023-05-19T19:31:25.714Z,2.65
2023-05-19T19:33:52.229Z,3.20
2023-05-19T19:36:18.779Z,3.05
2023-05-19T19:38:45.338Z,3.30
2023-05-19T19:41:11.931Z,3.72
2023-05-19T19:43:38.448Z,3.05
2023-05-19T19:46:06.949Z,3.72
2023-05-19T19:48:33.528Z,3.85
2023-05-19T19:50:59.979Z,3.58
2023-05-19T19:53:26.467Z,4.43
2023-05-19T19:55:59.616Z,4.70
2023-05-19T19:58:27.129Z,3.80
2023-05-19T20:00:59.646Z,3.50
2023-05-19T20:03:26.860Z,4.22
2023-05-19T20:05:56.956Z,3.70
2023-05-19T20:08:24.846Z,4.25
2023-05-19T20:10:51.628Z,4.20
2023-05-19T20:13:18.959Z,4.22
2023-05-19T20:15:46.614Z,3.60
2023-05-19T20:18:13.195Z,4.55
2023-05-19T20:20:40.212Z,4.50
2023-05-19T20:23:07.678Z,4.35
2023-05-19T20:25:34.743Z,4.22
2023-05-19T20:28:02.024Z,4.20
2023-05-19T20:30:28.640Z,4.55
2023-05-19T20:32:55.152Z,4.35
2023-05-19T20:35:22.322Z,5.43
2023-05-19T20:37:49.317Z,4.45
2023-05-19T20:40:15.846Z,4.43
2023-05-19T20:42:42.568Z,5.50
2023-05-19T20:45:09.255Z,4.65
2023-05-19T20:47:36.039Z,4.25
2023-05-19T20:50:02.601Z,4.18
2023-05-19T20:52:29.176Z,4.78
2023-05-19T20:54:55.668Z,4.22
2023-05-19T20:57:22.238Z,4.35
2023-05-19T20:59:48.706Z,4.22
2023-05-19T21:02:15.237Z,4.07
2023-05-19T21:04:41.725Z,3.60
2023-05-19T21:07:08.296Z,3.47
2023-05-19T21:09:34.794Z,3.83
2023-05-19T21:12:01.989Z,3.90
2023-05-19T21:14:28.542Z,4.32
2023-05-19T21:16:55.873Z,4.07
2023-05-19T21:19:23.104Z,3.30
2023-05-19T21:21:49.684Z,4.00
2023-05-19T21:24:16.539Z,3.72
2023-05-19T21:26:43.356Z,3.75
2023-05-19T21:29:10.629Z,4.13
2023-05-19T21:31:37.366Z,4.65
2023-05-19T21:34:04.808Z,4.53
2023-05-19T21:36:31.764Z,4.18
2023-05-19T21:38:58.297Z,4.60
2023-05-19T21:41:25.018Z,4.72
2023-05-19T21:43:51.558Z,4.57
2023-05-19T21:46:18.174Z,5.07
2023-05-19T21:48:44.690Z,4.18
2023-05-19T21:51:11.143Z,4.32
2023-05-19T21:53:37.603Z,4.13
2023-05-19T21:56:04.455Z,4.88
2023-05-19T21:58:30.974Z,3.88
2023-05-19T22:00:57.523Z,5.32
2023-05-19T22:03:24.201Z,6.28
2023-05-19T22:05:52.359Z,4.18
2023-05-19T22:08:20.258Z,4.40
2023-05-19T22:10:53.425Z,4.40
2023-05-19T22:13:20.259Z,4.82
2023-05-19T22:15:46.996Z,4.43
2023-05-19T22:18:13.613Z,4.00
2023-05-19T22:20:40.299Z,3.80
2023-05-19T22:23:06.850Z,4.40
2023-05-19T22:25:33.451Z,3.60
2023-05-19T22:28:01.163Z,4.15
2023-05-19T22:30:27.975Z,3.47
2023-05-19T22:32:54.515Z,3.10
2023-05-19T22:35:21.302Z,3.10
2023-05-19T22:37:47.799Z,4.60
2023-05-19T22:40:14.341Z,3.88
2023-05-19T22:42:40.941Z,3.25
2023-05-19T22:45:07.991Z,3.70
2023-05-19T22:47:34.567Z,3.75
2023-05-19T22:50:01.106Z,4.07
2023-05-19T22:52:27.622Z,3.90
2023-05-19T22:54:54.136Z,3.78
2023-05-19T22:57:20.706Z,3.55
2023-05-19T22:59:47.289Z,4.20
2023-05-19T23:02:13.860Z,4.15
2023-05-19T23:04:40.598Z,3.97
2023-05-19T23:07:07.132Z,4.63
2023-05-19T23:09:33.795Z,3.90
2023-05-19T23:12:00.291Z,4.43
2023-05-19T23:14:26.863Z,4.78
2023-05-19T23:16:53.453Z,4.32
2023-05-19T23:19:23.080Z,4.07
2023-05-19T23:21:49.655Z,4.50
2023-05-19T23:24:16.168Z,5.22
2023-05-19T23:26:45.879Z,4.65
2023-05-19T23:29:13.318Z,4.10
2023-05-19T23:31:41.021Z,4.30
2023-05-19T23:34:07.960Z,4.57
2023-05-19T23:36:34.427Z,4.95
2023-05-19T23:39:01.170Z,4.90
2023-05-19T23:41:27.768Z,4.25
2023-05-19T23:43:54.324Z,5.15
2023-05-19T23:46:20.995Z,4.90
2023-05-19T23:48:47.570Z,4.78
2023-05-19T23:51:14.258Z,4.15
2023-05-19T23:53:40.830Z,4.43
2023-05-19T23:56:07.660Z,4.63
2023-05-19T23:58:34.177Z,4.43
